Time;durP1;ratioP1;P1;durP2;ratioP2;P2;SDS_P1;SDS_P2;PMS_P1;PMS_P2;Temp;Humidity;BMP_temperature;BMP_pressure;BME280_temperature;BME280_humidity;BME280_pressure;Samples;Min_cycle;Max_cycle;Signal;HPM_P1;HPM_P2
2021/01/21 00:00:22;;;;;;;1.87;0.60;;;10.40;86.70;;;;;;5031729;28;20178;-59
2021/01/21 00:02:48;;;;;;;1.80;0.63;;;10.50;85.50;;;;;;5033913;28;20664;-59
2021/01/21 00:05:14;;;;;;;1.53;0.20;;;10.60;85.20;;;;;;5031029;28;20186;-58
2021/01/21 00:07:39;;;;;;;2.30;0.80;;;10.50;85.60;;;;;;5030892;28;20183;-59
2021/01/21 00:10:06;;;;;;;1.70;0.33;;;10.50;85.40;;;;;;5030561;28;20189;-59
2021/01/21 00:12:31;;;;;;;1.60;0.50;;;10.50;85.80;;;;;;5030008;28;20201;-59
2021/01/21 00:14:57;;;;;;;1.50;0.20;;;10.40;86.10;;;;;;5031564;28;20784;-59
2021/01/21 00:17:23;;;;;;;1.50;0.30;;;10.40;86.50;;;;;;5035173;28;20285;-59
2021/01/21 00:19:48;;;;;;;2.23;1.43;;;10.30;87.60;;;;;;5029238;28;20572;-59
2021/01/21 00:22:14;;;;;;;1.50;0.20;;;10.20;87.30;;;;;;5031952;28;20209;-58
2021/01/21 00:24:39;;;;;;;1.93;0.70;;;10.20;87.70;;;;;;5033357;28;20186;-58
2021/01/21 00:27:05;;;;;;;1.70;0.40;;;10.10;87.90;;;;;;5028643;28;20190;-59
2021/01/21 00:29:30;;;;;;;1.50;0.20;;;10.00;88.20;;;;;;5033469;28;20275;-59
2021/01/21 00:31:56;;;;;;;4.63;1.17;;;10.00;89.00;;;;;;5030818;28;20549;-58
2021/01/21 00:34:22;;;;;;;1.50;0.20;;;9.90;90.20;;;;;;5033125;28;20660;-59
2021/01/21 00:36:47;;;;;;;1.53;0.20;;;9.90;90.30;;;;;;5033046;28;20209;-59
2021/01/21 00:39:13;;;;;;;1.57;0.20;;;9.80;90.70;;;;;;5032397;28;20193;-59
2021/01/21 00:41:38;;;;;;;1.70;0.50;;;9.80;90.30;;;;;;5029493;28;20204;-59
2021/01/21 00:44:04;;;;;;;1.57;0.20;;;9.80;90.60;;;;;;5025978;28;20718;-59
2021/01/21 00:46:30;;;;;;;1.53;0.20;;;9.80;90.70;;;;;;5029649;28;20549;-59
2021/01/21 00:48:56;;;;;;;1.50;0.20;;;9.70;90.90;;;;;;5032916;28;20432;-59
2021/01/21 00:51:23;;;;;;;1.70;0.60;;;9.70;91.00;;;;;;5033667;28;20204;-59
2021/01/21 00:53:48;;;;;;;1.57;0.20;;;9.60;91.40;;;;;;5031260;28;20197;-59
2021/01/21 00:56:14;;;;;;;1.50;0.20;;;9.60;91.50;;;;;;5033346;28;20437;-61
2021/01/21 00:58:39;;;;;;;1.50;0.20;;;9.60;91.50;;;;;;5030368;28;20208;-59
2021/01/21 01:01:05;;;;;;;1.60;0.40;;;9.60;91.70;;;;;;5032564;28;20263;-59
2021/01/21 01:03:31;;;;;;;13.87;13.07;;;9.50;91.70;;;;;;5032149;28;20193;-60
2021/01/21 01:05:56;;;;;;;1.50;0.20;;;9.50;91.40;;;;;;5033634;28;20197;-59
2021/01/21 01:08:22;;;;;;;1.50;0.20;;;9.50;92.00;;;;;;5032603;28;20197;-60
2021/01/21 01:10:47;;;;;;;2.13;1.03;;;9.50;91.60;;;;;;5034769;28;20186;-59
2021/01/21 01:13:13;;;;;;;1.60;0.40;;;9.50;91.50;;;;;;5034080;28;20182;-60
2021/01/21 01:15:38;;;;;;;1.50;0.20;;;9.50;91.50;;;;;;5032932;28;20232;-59
2021/01/21 01:18:04;;;;;;;1.80;0.30;;;9.60;91.60;;;;;;5034489;28;20213;-59
2021/01/21 01:20:29;;;;;;;1.57;0.20;;;9.60;91.80;;;;;;5031902;28;20186;-59
2021/01/21 01:22:55;;;;;;;1.70;0.50;;;9.60;91.90;;;;;;5033064;28;20198;-60
2021/01/21 01:25:22;;;;;;;1.50;0.20;;;9.50;91.70;;;;;;5031125;28;20577;-59
2021/01/21 01:27:48;;;;;;;1.57;0.20;;;9.50;91.80;;;;;;5030170;28;20657;-61
2021/01/21 01:30:15;;;;;;;1.57;0.20;;;9.50;91.70;;;;;;5032485;28;20454;-60
2021/01/21 01:32:41;;;;;;;1.60;0.30;;;9.50;91.80;;;;;;5028070;28;20466;-59
2021/01/21 01:35:07;;;;;;;1.70;0.40;;;9.50;91.60;;;;;;5030103;28;20515;-60
2021/01/21 01:37:33;;;;;;;1.80;0.67;;;9.50;91.50;;;;;;5032645;28;20475;-60
2021/01/21 01:39:59;;;;;;;1.50;0.20;;;9.50;91.40;;;;;;5033860;28;20446;-59
2021/01/21 01:42:25;;;;;;;1.50;0.20;;;9.60;91.40;;;;;;5031091;28;20206;-59
2021/01/21 01:44:51;;;;;;;1.50;0.20;;;9.60;91.10;;;;;;5034113;28;20201;-59
2021/01/21 01:47:17;;;;;;;1.60;0.40;;;9.70;91.10;;;;;;5033792;28;20449;-58
2021/01/21 01:49:45;;;;;;;1.50;0.30;;;9.70;90.90;;;;;;5030062;28;20464;-59
2021/01/21 01:52:10;;;;;;;1.97;0.80;;;9.80;90.90;;;;;;5033713;28;20533;-59
2021/01/21 01:54:36;;;;;;;1.50;0.20;;;9.80;90.90;;;;;;5034042;28;20947;-58
2021/01/21 01:57:02;;;;;;;2.30;0.50;;;9.80;90.80;;;;;;5031995;28;20269;-58
2021/01/21 01:59:34;;;;;;;1.50;0.20;;;9.80;90.80;;;;;;5034174;28;20303;-61
2021/01/21 02:02:00;;;;;;;2.13;0.40;;;9.80;90.70;;;;;;5028439;28;20823;-59
2021/01/21 02:04:25;;;;;;;1.50;0.20;;;9.90;90.60;;;;;;5031502;28;20853;-60
2021/01/21 02:06:51;;;;;;;1.50;0.20;;;9.90;90.50;;;;;;5034142;28;20508;-60
2021/01/21 02:09:16;;;;;;;1.70;0.40;;;9.90;90.30;;;;;;5032070;28;20240;-60
2021/01/21 02:12:04;;;;;;;1.90;0.40;;;9.90;90.10;;;;;;5031971;28;20213;-62
2021/01/21 02:14:50;;;;;;;1.50;0.20;;;10.00;88.50;;;;;;5028117;28;20178;-58
2021/01/21 02:17:41;;;;;;;1.90;0.60;;;10.00;88.30;;;;;;5026563;28;20475;-60
2021/01/21 02:20:28;;;;;;;1.50;0.20;;;10.10;87.40;;;;;;5031016;28;20445;-58
2021/01/21 02:23:31;;;;;;;1.57;0.23;;;10.10;87.20;;;;;;5032500;28;20461;-59
2021/01/21 02:26:10;;;;;;;1.50;0.20;;;10.10;86.50;;;;;;5032888;28;20436;-59
2021/01/21 02:29:10;;;;;;;1.60;0.30;;;10.20;85.70;;;;;;5031686;28;20452;-59
2021/01/21 02:32:09;;;;;;;1.90;0.90;;;10.30;84.80;;;;;;5025775;28;20536;-60
2021/01/21 02:34:53;;;;;;;1.50;0.20;;;10.30;84.20;;;;;;5025854;28;20900;-59
2021/01/21 02:37:26;;;;;;;1.50;0.20;;;10.40;83.90;;;;;;5028614;28;20512;-58
2021/01/21 02:39:54;;;;;;;1.83;0.30;;;10.40;83.70;;;;;;5031738;28;20443;-59
2021/01/21 02:42:19;;;;;;;4.60;1.27;;;10.40;83.70;;;;;;5032765;28;20857;-59
2021/01/21 02:44:47;;;;;;;1.60;0.30;;;10.40;83.20;;;;;;5032872;28;20518;-58
2021/01/21 02:47:13;;;;;;;1.60;0.30;;;10.40;83.50;;;;;;5032213;28;20189;-60
2021/01/21 02:49:39;;;;;;;1.60;0.40;;;10.40;83.00;;;;;;5030993;28;21024;-61
2021/01/21 02:52:35;;;;;;;1.57;0.30;;;10.40;82.70;;;;;;5027873;28;20543;-60
2021/01/21 02:55:06;;;;;;;1.87;0.40;;;10.40;82.10;;;;;;5032457;28;20448;-60
2021/01/21 02:57:42;;;;;;;3.03;2.23;;;10.40;82.90;;;;;;5029788;28;20464;-58
2021/01/21 03:00:10;;;;;;;1.70;0.47;;;10.40;82.10;;;;;;5027577;28;20472;-59
2021/01/21 03:02:40;;;;;;;1.50;0.30;;;10.50;81.70;;;;;;5027884;28;20465;-60
2021/01/21 03:05:06;;;;;;;1.70;0.30;;;10.40;81.90;;;;;;5027275;28;20433;-60
2021/01/21 03:07:35;;;;;;;1.50;0.33;;;10.40;81.50;;;;;;5029826;28;20464;-60
2021/01/21 03:10:00;;;;;;;1.50;0.30;;;10.40;81.70;;;;;;5030402;28;20432;-60
2021/01/21 03:12:27;;;;;;;2.00;0.30;;;10.30;82.30;;;;;;5029666;28;21013;-60
2021/01/21 03:14:55;;;;;;;1.80;0.50;;;10.30;82.50;;;;;;5029511;28;20818;-60
2021/01/21 03:17:22;;;;;;;1.50;0.30;;;10.20;82.70;;;;;;5032847;28;20587;-60
2021/01/21 03:19:48;;;;;;;1.50;0.20;;;10.20;83.10;;;;;;5029779;28;20445;-58
2021/01/21 03:22:13;;;;;;;3.40;0.90;;;10.20;83.20;;;;;;5029374;28;20535;-61
2021/01/21 03:24:39;;;;;;;2.00;0.63;;;10.20;83.30;;;;;;5026299;28;20699;-60
2021/01/21 03:27:05;;;;;;;1.50;0.20;;;10.20;83.00;;;;;;5031058;28;20247;-59
2021/01/21 03:29:30;;;;;;;1.60;0.30;;;10.20;83.30;;;;;;5030939;28;20197;-60
2021/01/21 03:31:56;;;;;;;1.50;0.20;;;10.10;83.50;;;;;;5029887;28;20210;-61
2021/01/21 03:34:21;;;;;;;1.47;0.27;;;10.20;83.20;;;;;;5033838;28;20221;-60
2021/01/21 03:36:47;;;;;;;1.50;0.30;;;10.10;83.40;;;;;;5037153;28;20197;-59
2021/01/21 03:39:13;;;;;;;1.50;0.20;;;10.20;83.60;;;;;;5034000;28;20198;-58
2021/01/21 03:41:38;;;;;;;3.57;1.37;;;10.10;83.70;;;;;;5038338;28;20460;-58
2021/01/21 03:44:05;;;;;;;1.47;0.20;;;10.20;83.40;;;;;;5036304;28;20194;-58
2021/01/21 03:46:30;;;;;;;2.00;0.50;;;10.20;83.70;;;;;;5032550;28;20653;-59
2021/01/21 03:48:56;;;;;;;1.80;0.43;;;10.30;83.40;;;;;;5036238;28;20451;-58
2021/01/21 03:51:21;;;;;;;1.47;0.20;;;10.40;82.70;;;;;;5033761;28;20217;-58
2021/01/21 03:53:47;;;;;;;1.70;0.40;;;10.40;82.40;;;;;;5015974;28;20255;-59
2021/01/21 03:56:12;;;;;;;3.70;0.83;;;10.40;82.70;;;;;;5035446;28;20197;-58
2021/01/21 03:58:38;;;;;;;1.50;0.30;;;10.40;82.30;;;;;;5033044;28;20210;-58
2021/01/21 04:01:03;;;;;;;1.50;0.30;;;10.50;82.40;;;;;;5031041;28;20213;-58
2021/01/21 04:03:29;;;;;;;1.90;0.60;;;10.50;81.90;;;;;;5034144;28;20213;-59
2021/01/21 04:05:55;;;;;;;1.60;0.40;;;10.50;82.10;;;;;;5032409;28;20186;-58
2021/01/21 04:08:20;;;;;;;2.60;0.90;;;10.60;82.00;;;;;;5034741;28;20592;-58
2021/01/21 04:10:46;;;;;;;1.87;0.50;;;10.60;81.70;;;;;;5036431;28;20204;-58
2021/01/21 04:13:11;;;;;;;1.60;0.40;;;10.70;81.40;;;;;;5030814;28;20182;-58
2021/01/21 04:15:37;;;;;;;1.40;0.20;;;10.70;81.10;;;;;;5035741;28;20196;-60
2021/01/21 04:18:02;;;;;;;1.50;0.30;;;10.70;81.50;;;;;;5031934;28;20565;-59
2021/01/21 04:20:28;;;;;;;1.53;0.33;;;10.70;81.10;;;;;;5031442;28;20649;-58
2021/01/21 04:22:53;;;;;;;1.90;1.63;;;10.80;81.20;;;;;;5035711;28;20487;-60
2021/01/21 04:25:19;;;;;;;1.90;0.70;;;10.80;81.10;;;;;;5033143;28;20197;-57
2021/01/21 04:27:45;;;;;;;1.43;0.20;;;10.80;81.30;;;;;;5030754;28;20268;-58
2021/01/21 04:30:10;;;;;;;1.63;0.33;;;10.80;81.00;;;;;;5031006;28;20273;-59
2021/01/21 04:32:36;;;;;;;1.40;0.20;;;10.80;81.00;;;;;;5032131;28;20217;-58
2021/01/21 04:35:02;;;;;;;1.50;0.20;;;10.90;81.20;;;;;;5033578;28;20189;-58
2021/01/21 04:37:27;;;;;;;1.40;0.20;;;10.80;81.00;;;;;;5035011;28;20218;-60
2021/01/21 04:39:53;;;;;;;1.80;0.47;;;10.80;81.20;;;;;;5033220;28;21001;-60
2021/01/21 04:42:18;;;;;;;1.90;0.60;;;10.80;81.40;;;;;;5031842;28;20328;-61
2021/01/21 04:44:44;;;;;;;1.60;0.40;;;10.80;81.50;;;;;;5034646;28;20570;-60
2021/01/21 04:47:10;;;;;;;1.40;0.20;;;10.70;81.90;;;;;;5031887;28;20649;-60
2021/01/21 04:49:40;;;;;;;2.00;0.97;;;10.70;82.30;;;;;;5033791;28;20213;-60
2021/01/21 04:52:09;;;;;;;1.47;0.20;;;10.60;82.50;;;;;;5038028;28;20465;-60
2021/01/21 04:54:41;;;;;;;1.50;0.20;;;10.70;82.70;;;;;;5034034;28;21080;-59
2021/01/21 04:57:11;;;;;;;1.50;0.30;;;10.60;83.10;;;;;;5033106;28;20464;-59
2021/01/21 04:59:38;;;;;;;1.50;0.20;;;10.60;83.10;;;;;;5029990;28;20476;-60
2021/01/21 05:02:05;;;;;;;1.50;0.20;;;10.60;83.30;;;;;;5029844;28;20522;-59
2021/01/21 05:04:31;;;;;;;1.50;0.30;;;10.50;83.40;;;;;;5032296;28;20433;-59
2021/01/21 05:06:56;;;;;;;1.43;0.20;;;10.50;83.90;;;;;;5032764;28;20833;-59
2021/01/21 05:09:22;;;;;;;8.63;3.50;;;10.40;84.40;;;;;;5032226;28;20182;-60
2021/01/21 05:11:48;;;;;;;1.47;0.20;;;10.40;84.50;;;;;;5032850;28;20214;-60
2021/01/21 05:14:15;;;;;;;1.50;0.20;;;10.40;85.00;;;;;;5033268;28;20240;-61
2021/01/21 05:16:43;;;;;;;1.40;0.20;;;10.30;85.20;;;;;;5032270;28;20508;-59
2021/01/21 05:19:15;;;;;;;1.43;0.20;;;10.30;85.30;;;;;;5025954;28;20761;-59
2021/01/21 05:21:42;;;;;;;1.50;0.20;;;10.30;86.40;;;;;;5032179;28;20978;-59
2021/01/21 05:24:14;;;;;;;1.50;0.20;;;10.30;85.40;;;;;;5031307;28;20448;-59
2021/01/21 05:26:41;;;;;;;2.57;1.03;;;10.30;85.40;;;;;;5033327;28;20452;-62
2021/01/21 05:29:07;;;;;;;1.60;0.20;;;10.30;85.50;;;;;;5033719;28;20440;-59
2021/01/21 05:31:33;;;;;;;1.40;0.20;;;10.30;85.80;;;;;;5031571;28;20467;-61
2021/01/21 05:34:00;;;;;;;1.50;0.27;;;10.30;85.80;;;;;;5033089;28;20761;-60
2021/01/21 05:36:26;;;;;;;2.13;0.87;;;10.30;86.00;;;;;;5031772;28;20433;-59
2021/01/21 05:38:56;;;;;;;1.60;0.60;;;10.30;86.10;;;;;;5031778;28;20959;-59
2021/01/21 05:41:24;;;;;;;1.40;0.20;;;10.30;86.40;;;;;;5030599;28;20459;-59
2021/01/21 05:43:49;;;;;;;2.97;1.70;;;10.30;86.90;;;;;;5030518;28;20527;-59
2021/01/21 05:46:17;;;;;;;1.93;0.50;;;10.30;87.20;;;;;;5032156;28;20475;-60
2021/01/21 05:48:43;;;;;;;2.00;0.40;;;10.30;87.40;;;;;;5029833;28;20186;-60
2021/01/21 05:51:10;;;;;;;1.60;0.40;;;10.20;87.10;;;;;;5032145;28;20607;-59
2021/01/21 05:53:36;;;;;;;1.50;0.20;;;10.30;87.50;;;;;;5031294;28;20644;-60
2021/01/21 05:56:02;;;;;;;3.00;0.90;;;10.30;87.70;;;;;;5033249;28;20476;-60
2021/01/21 05:58:27;;;;;;;3.03;0.90;;;10.30;87.80;;;;;;5029591;28;20547;-59
2021/01/21 06:00:53;;;;;;;2.00;0.77;;;10.20;88.40;;;;;;5031155;28;20276;-59
2021/01/21 06:03:19;;;;;;;3.60;1.50;;;10.20;88.60;;;;;;5033657;28;20637;-59
2021/01/21 06:05:49;;;;;;;2.10;0.90;;;10.20;88.80;;;;;;5029596;28;20432;-59
2021/01/21 06:08:19;;;;;;;1.47;0.20;;;10.20;88.80;;;;;;5030170;28;20554;-59
2021/01/21 06:10:45;;;;;;;1.43;0.20;;;10.20;89.10;;;;;;5033108;28;20456;-59
2021/01/21 06:13:14;;;;;;;1.40;0.20;;;10.20;89.60;;;;;;5030569;28;20460;-59
2021/01/21 06:15:41;;;;;;;1.50;0.23;;;10.20;89.50;;;;;;5032598;28;20440;-59
2021/01/21 06:18:07;;;;;;;1.70;0.43;;;10.20;89.80;;;;;;5031657;28;20483;-59
2021/01/21 06:20:32;;;;;;;1.40;0.20;;;10.20;89.90;;;;;;5030491;28;21008;-60
2021/01/21 06:23:03;;;;;;;1.70;0.43;;;10.20;89.90;;;;;;5033763;28;20715;-59
2021/01/21 06:25:30;;;;;;;1.40;0.20;;;10.20;89.80;;;;;;5029932;28;20188;-60
2021/01/21 06:27:56;;;;;;;3.10;0.93;;;10.20;89.70;;;;;;5032678;28;20448;-59
2021/01/21 06:30:21;;;;;;;1.97;0.67;;;10.20;89.80;;;;;;5031765;28;20444;-59
2021/01/21 06:33:07;;;;;;;1.50;0.37;;;10.20;90.00;;;;;;5031060;28;20468;-58
2021/01/21 06:35:35;;;;;;;3.37;1.43;;;10.20;90.20;;;;;;5027833;28;20660;-58
2021/01/21 06:38:17;;;;;;;1.50;0.20;;;10.20;90.20;;;;;;5035166;28;20475;-59
2021/01/21 06:40:53;;;;;;;1.50;0.20;;;10.20;90.40;;;;;;5034049;28;20456;-59
2021/01/21 06:43:25;;;;;;;1.87;0.60;;;10.20;90.70;;;;;;5031638;28;20784;-60
2021/01/21 06:45:52;;;;;;;1.43;0.20;;;10.20;90.80;;;;;;5029287;28;20429;-58
2021/01/21 06:48:18;;;;;;;1.80;0.40;;;10.20;90.90;;;;;;5029432;28;20448;-59
2021/01/21 06:50:45;;;;;;;2.17;0.50;;;10.20;90.80;;;;;;5029033;28;20444;-60
2021/01/21 06:53:11;;;;;;;2.37;0.53;;;10.20;90.80;;;;;;5032234;28;20979;-60
2021/01/21 06:55:39;;;;;;;3.10;0.73;;;10.20;90.60;;;;;;5028373;28;20958;-59
2021/01/21 06:58:07;;;;;;;1.60;0.50;;;10.20;90.50;;;;;;5025378;28;20503;-58
2021/01/21 07:00:41;;;;;;;1.43;0.20;;;10.20;90.60;;;;;;5030291;28;20481;-59
2021/01/21 07:03:25;;;;;;;2.10;0.93;;;10.20;90.70;;;;;;5026777;28;20799;-58
2021/01/21 07:06:01;;;;;;;1.50;0.20;;;10.20;90.60;;;;;;5026007;28;20441;-59
2021/01/21 07:08:28;;;;;;;1.50;0.30;;;10.10;90.70;;;;;;5033347;28;20442;-60
2021/01/21 07:11:00;;;;;;;1.80;0.40;;;10.10;91.00;;;;;;5033666;28;20448;-58
2021/01/21 07:13:29;;;;;;;1.50;0.23;;;10.10;91.00;;;;;;5031853;28;20488;-58
2021/01/21 07:16:05;;;;;;;2.43;0.93;;;10.10;91.10;;;;;;5037837;28;20436;-57
2021/01/21 07:18:33;;;;;;;1.50;0.30;;;10.10;91.40;;;;;;5034696;28;20849;-56
2021/01/21 07:21:10;;;;;;;1.47;0.20;;;10.20;91.00;;;;;;5050718;22;20583;-62
2021/01/21 07:23:42;;;;;;;1.50;0.30;;;10.10;90.90;;;;;;5053558;28;20440;-62
2021/01/21 07:26:24;;;;;;;1.63;0.50;;;10.10;91.20;;;;;;5033152;28;20494;-62
2021/01/21 07:28:55;;;;;;;1.83;0.43;;;10.10;91.50;;;;;;5046575;28;20427;-62
2021/01/21 07:31:21;;;;;;;1.57;0.33;;;10.20;91.70;;;;;;5057576;28;20463;-61
2021/01/21 07:33:47;;;;;;;1.90;1.13;;;10.20;91.80;;;;;;5048912;28;20538;-63
2021/01/21 07:36:29;;;;;;;2.63;0.70;;;10.20;92.00;;;;;;5046908;28;20187;-62
2021/01/21 07:38:54;;;;;;;1.60;0.30;;;10.20;92.10;;;;;;5049749;28;20774;-62
2021/01/21 07:41:41;;;;;;;1.47;0.30;;;10.20;92.30;;;;;;5051688;28;20209;-63
2021/01/21 07:44:08;;;;;;;1.67;0.60;;;10.20;92.70;;;;;;5053877;28;20198;-64
2021/01/21 07:46:33;;;;;;;1.50;0.20;;;10.10;92.90;;;;;;5058180;28;20452;-63
2021/01/21 07:49:24;;;;;;;1.50;0.20;;;10.20;93.30;;;;;;5055187;28;20440;-62
2021/01/21 07:52:00;;;;;;;1.63;0.37;;;10.10;93.70;;;;;;5048398;28;20300;-62
2021/01/21 07:54:28;;;;;;;2.53;0.97;;;10.20;94.20;;;;;;5047193;28;20455;-63
2021/01/21 07:56:54;;;;;;;1.50;0.20;;;10.20;94.60;;;;;;5056472;28;20439;-63
2021/01/21 07:59:19;;;;;;;1.97;0.50;;;10.20;95.00;;;;;;5046553;28;20883;-63
2021/01/21 08:01:58;;;;;;;1.50;0.20;;;10.30;95.70;;;;;;5054888;28;20213;-65
2021/01/21 08:04:24;;;;;;;3.03;0.87;;;10.40;95.90;;;;;;5053699;28;20177;-64
2021/01/21 08:06:54;;;;;;;1.50;0.20;;;10.50;96.00;;;;;;5044721;28;20497;-63
2021/01/21 08:09:21;;;;;;;1.70;0.40;;;10.50;96.20;;;;;;5047366;28;20243;-63
2021/01/21 08:11:48;;;;;;;1.50;0.20;;;10.50;96.30;;;;;;5043239;28;20931;-62
2021/01/21 08:14:14;;;;;;;1.50;0.20;;;10.60;96.60;;;;;;5037643;28;20583;-62
2021/01/21 08:16:40;;;;;;;1.63;0.40;;;10.60;96.70;;;;;;5034912;28;20520;-62
2021/01/21 08:19:06;;;;;;;1.97;0.77;;;10.80;96.60;;;;;;5036656;28;20483;-63
2021/01/21 08:21:32;;;;;;;1.50;0.20;;;10.90;96.60;;;;;;5033674;28;20201;-61
2021/01/21 08:23:59;;;;;;;1.60;0.20;;;11.00;96.50;;;;;;5020013;28;20443;-61
2021/01/21 08:26:27;;;;;;;1.70;0.50;;;11.00;96.80;;;;;;5037954;28;20193;-62
2021/01/21 08:28:53;;;;;;;2.43;0.40;;;11.00;99.30;;;;;;5035229;28;20964;-61
2021/01/21 08:31:29;;;;;;;1.50;0.20;;;10.70;99.90;;;;;;5036224;28;20468;-63
2021/01/21 08:33:55;;;;;;;2.50;0.57;;;10.50;99.90;;;;;;5033257;28;20185;-62
2021/01/21 08:36:23;;;;;;;1.80;0.40;;;10.30;99.90;;;;;;5031558;28;20452;-63
2021/01/21 08:38:49;;;;;;;1.60;0.30;;;10.20;99.90;;;;;;5035648;28;20970;-62
2021/01/21 08:41:15;;;;;;;1.57;0.23;;;10.20;99.90;;;;;;5035512;28;20529;-61
2021/01/21 08:43:43;;;;;;;1.50;0.20;;;10.20;99.90;;;;;;5032363;28;20429;-62
2021/01/21 08:46:16;;;;;;;1.60;0.30;;;10.30;99.90;;;;;;5039472;28;20908;-63
2021/01/21 08:48:42;;;;;;;3.70;0.50;;;10.40;99.90;;;;;;5031696;28;20440;-62
2021/01/21 08:51:26;;;;;;;1.50;0.20;;;10.50;99.90;;;;;;5034011;28;20772;-65
2021/01/21 08:53:52;;;;;;;1.87;0.53;;;10.40;99.90;;;;;;5032920;28;20439;-63
2021/01/21 08:56:17;;;;;;;1.50;0.20;;;10.50;99.90;;;;;;5034239;28;20467;-62
2021/01/21 08:58:43;;;;;;;3.30;1.17;;;10.50;99.90;;;;;;5035502;28;20205;-61
2021/01/21 09:01:11;;;;;;;1.50;0.20;;;10.70;99.90;;;;;;5034562;28;20789;-62
2021/01/21 09:03:48;;;;;;;4.60;1.17;;;10.80;99.90;;;;;;5028840;28;20174;-65
2021/01/21 09:06:24;;;;;;;1.77;0.60;;;10.80;99.90;;;;;;5028097;28;20532;-62
2021/01/21 09:08:57;;;;;;;1.80;0.50;;;10.90;99.90;;;;;;5033494;28;20808;-62
2021/01/21 09:11:40;;;;;;;1.50;0.20;;;11.00;99.90;;;;;;5034841;28;20479;-62
2021/01/21 09:14:07;;;;;;;1.80;0.40;;;11.00;99.90;;;;;;5036056;28;20452;-62
2021/01/21 09:16:46;;;;;;;2.47;1.23;;;11.10;99.90;;;;;;5044860;28;20950;-62
2021/01/21 09:19:14;;;;;;;2.20;0.60;;;11.10;99.90;;;;;;5036421;28;20483;-62
2021/01/21 09:22:29;;;;;;;2.00;0.80;;;11.10;99.90;;;;;;5032236;28;21004;-63
2021/01/21 09:25:02;;;;;;;1.70;0.40;;;11.20;99.90;;;;;;5020143;28;20436;-62
2021/01/21 09:27:29;;;;;;;1.57;0.20;;;11.10;99.90;;;;;;5019665;28;20449;-61
2021/01/21 09:30:11;;;;;;;1.70;0.40;;;11.10;99.90;;;;;;5028359;28;20449;-62
2021/01/21 09:32:39;;;;;;;1.50;0.20;;;11.10;99.90;;;;;;5034659;28;20459;-62
2021/01/21 09:35:06;;;;;;;1.50;0.20;;;11.10;99.90;;;;;;5043318;28;20517;-61
2021/01/21 09:37:37;;;;;;;1.50;0.20;;;11.10;99.90;;;;;;5033510;28;20507;-61
2021/01/21 09:40:11;;;;;;;1.80;0.50;;;11.00;99.90;;;;;;5033723;28;20452;-62
2021/01/21 09:42:37;;;;;;;1.57;0.20;;;11.00;99.90;;;;;;5032698;28;20452;-62
2021/01/21 09:45:04;;;;;;;2.13;0.83;;;11.00;99.90;;;;;;5035649;28;20437;-62
2021/01/21 09:47:30;;;;;;;1.90;0.50;;;11.00;99.90;;;;;;5037676;28;20244;-62
2021/01/21 09:49:56;;;;;;;1.50;0.20;;;11.00;99.90;;;;;;5039060;28;20441;-62
2021/01/21 09:52:21;;;;;;;1.60;0.30;;;11.00;99.90;;;;;;5032462;28;20232;-62
2021/01/21 09:54:47;;;;;;;1.57;0.20;;;10.90;99.90;;;;;;5038507;28;20451;-63
2021/01/21 09:57:12;;;;;;;1.83;0.50;;;10.90;99.90;;;;;;5035775;28;20687;-63
2021/01/21 09:59:38;;;;;;;2.53;0.50;;;10.90;99.90;;;;;;5027854;28;20174;-63
2021/01/21 10:02:05;;;;;;;1.70;0.33;;;10.90;99.90;;;;;;5030282;28;20225;-62
2021/01/21 10:04:31;;;;;;;2.30;0.50;;;10.80;99.90;;;;;;5031693;28;20189;-61
2021/01/21 10:06:57;;;;;;;1.57;0.20;;;10.90;99.90;;;;;;5029124;28;20449;-62
2021/01/21 10:09:22;;;;;;;1.50;0.20;;;10.80;99.90;;;;;;5031234;28;20975;-61
2021/01/21 10:11:48;;;;;;;1.70;0.30;;;10.90;99.90;;;;;;5031041;28;20729;-61
2021/01/21 10:14:13;;;;;;;2.23;0.63;;;10.80;99.90;;;;;;5030640;28;20182;-61
2021/01/21 10:16:39;;;;;;;1.53;0.20;;;10.90;99.90;;;;;;5034859;28;20540;-63
2021/01/21 10:19:05;;;;;;;1.90;0.47;;;10.90;99.90;;;;;;5032556;28;20204;-62
2021/01/21 10:21:30;;;;;;;2.33;0.83;;;10.90;99.90;;;;;;5033052;28;20207;-61
2021/01/21 10:23:56;;;;;;;2.10;0.73;;;10.90;99.90;;;;;;5036393;28;20272;-63
2021/01/21 10:26:22;;;;;;;2.43;0.90;;;10.80;99.90;;;;;;5030287;28;20178;-63
2021/01/21 10:28:48;;;;;;;1.60;0.33;;;10.80;99.90;;;;;;5031594;28;20190;-63
2021/01/21 10:31:14;;;;;;;1.60;0.40;;;10.70;99.90;;;;;;5035709;28;20460;-62
2021/01/21 10:33:41;;;;;;;1.50;0.20;;;10.60;99.90;;;;;;5031898;28;20790;-61
2021/01/21 10:36:07;;;;;;;2.37;0.40;;;9.80;99.90;;;;;;5032796;28;20730;-63
2021/01/21 10:38:33;;;;;;;1.53;0.20;;;9.10;99.90;;;;;;5026580;28;20491;-61
2021/01/21 10:40:59;;;;;;;1.60;0.30;;;8.70;99.90;;;;;;5028193;28;20487;-62
2021/01/21 10:43:24;;;;;;;1.90;0.40;;;8.40;99.90;;;;;;5033174;28;20263;-61
2021/01/21 10:45:50;;;;;;;1.80;0.30;;;8.30;99.90;;;;;;5031368;28;20590;-62
2021/01/21 10:48:15;;;;;;;1.70;0.30;;;8.10;99.90;;;;;;5030243;28;20186;-62
2021/01/21 10:50:42;;;;;;;2.20;0.30;;;8.10;99.90;;;;;;5012185;28;20220;-62
2021/01/21 10:53:08;;;;;;;2.10;1.27;;;8.00;99.90;;;;;;5014093;28;20252;-61
2021/01/21 10:55:34;;;;;;;1.70;0.20;;;8.00;99.90;;;;;;5028342;28;20462;-62
2021/01/21 10:57:59;;;;;;;1.70;0.20;;;8.00;99.90;;;;;;5033904;28;20467;-62
2021/01/21 11:00:25;;;;;;;2.40;0.90;;;8.00;99.90;;;;;;5030716;28;20193;-61
2021/01/21 11:02:51;;;;;;;1.70;0.20;;;8.00;99.90;;;;;;5017527;28;20182;-62
2021/01/21 11:05:17;;;;;;;2.13;0.53;;;8.00;99.90;;;;;;5033799;28;20189;-62
2021/01/21 11:07:42;;;;;;;2.30;0.43;;;8.00;99.90;;;;;;5027785;28;20198;-62
2021/01/21 11:10:08;;;;;;;1.70;0.20;;;8.00;99.90;;;;;;5032089;28;20455;-61
2021/01/21 11:12:35;;;;;;;2.13;0.43;;;8.10;99.90;;;;;;5029942;28;20217;-62
2021/01/21 11:15:02;;;;;;;1.70;0.20;;;8.10;99.90;;;;;;5030109;28;20194;-61
2021/01/21 11:17:27;;;;;;;1.70;0.20;;;8.10;99.90;;;;;;5035047;28;20515;-62
2021/01/21 11:19:53;;;;;;;1.70;0.20;;;8.20;99.90;;;;;;5031457;28;20465;-61
2021/01/21 11:22:18;;;;;;;1.70;0.20;;;8.20;99.90;;;;;;5031295;28;20213;-62
2021/01/21 11:24:44;;;;;;;1.70;0.20;;;8.20;99.90;;;;;;5029569;28;20182;-62
2021/01/21 11:27:09;;;;;;;1.70;0.20;;;8.30;99.90;;;;;;5031134;28;20228;-61
2021/01/21 11:29:35;;;;;;;1.80;0.30;;;8.30;99.90;;;;;;5029459;28;20188;-61
2021/01/21 11:32:00;;;;;;;1.90;0.43;;;8.30;99.90;;;;;;5035248;28;20236;-62
2021/01/21 11:34:26;;;;;;;2.47;0.93;;;8.30;99.90;;;;;;5041835;28;20190;-61
2021/01/21 11:36:52;;;;;;;1.70;0.20;;;8.30;99.90;;;;;;5021740;28;20174;-62
2021/01/21 11:39:17;;;;;;;1.70;0.20;;;8.40;99.90;;;;;;5036011;28;20178;-63
2021/01/21 11:41:43;;;;;;;2.10;0.30;;;8.40;99.90;;;;;;5015527;28;20296;-64
2021/01/21 11:44:09;;;;;;;1.70;0.20;;;8.40;99.90;;;;;;5032323;28;20208;-63
2021/01/21 11:46:34;;;;;;;1.70;0.20;;;8.40;99.90;;;;;;5041252;28;20719;-61
2021/01/21 11:49:01;;;;;;;2.00;0.50;;;8.40;99.90;;;;;;5032868;28;20194;-61
2021/01/21 11:51:26;;;;;;;1.80;0.43;;;8.40;99.90;;;;;;5033423;28;20456;-62
2021/01/21 11:53:51;;;;;;;1.80;0.40;;;8.40;99.90;;;;;;5033376;28;20452;-62
2021/01/21 11:56:17;;;;;;;2.07;0.43;;;8.40;99.90;;;;;;5032608;28;20190;-62
2021/01/21 11:58:43;;;;;;;1.80;0.33;;;8.30;99.90;;;;;;5032714;28;20207;-63
2021/01/21 12:01:08;;;;;;;2.83;0.43;;;8.30;99.90;;;;;;5034460;28;20750;-62
2021/01/21 12:03:34;;;;;;;1.80;0.40;;;8.30;99.90;;;;;;5015567;28;20191;-62
2021/01/21 12:06:01;;;;;;;2.30;1.10;;;8.30;99.90;;;;;;5041186;28;20212;-63
2021/01/21 12:08:27;;;;;;;1.70;0.20;;;8.20;99.90;;;;;;5035357;28;20182;-61
2021/01/21 12:10:52;;;;;;;1.90;0.30;;;8.20;99.90;;;;;;5032824;28;20464;-62
2021/01/21 12:13:18;;;;;;;1.70;0.20;;;8.20;99.90;;;;;;5036875;28;20468;-61
2021/01/21 12:15:43;;;;;;;1.80;0.30;;;8.20;99.90;;;;;;5036116;28;20189;-63
2021/01/21 12:18:09;;;;;;;3.10;0.43;;;8.30;99.90;;;;;;5036401;28;20197;-61
2021/01/21 12:20:35;;;;;;;1.77;0.40;;;8.30;99.90;;;;;;5052686;28;20196;-62
2021/01/21 12:23:01;;;;;;;1.70;0.20;;;8.30;99.90;;;;;;5056098;28;20509;-63
2021/01/21 12:25:26;;;;;;;1.70;0.20;;;8.40;99.90;;;;;;5036952;28;20194;-62
2021/01/21 12:27:52;;;;;;;2.27;0.73;;;8.40;99.90;;;;;;5052555;28;20190;-62
2021/01/21 12:30:18;;;;;;;1.70;0.30;;;8.40;99.90;;;;;;5055195;28;20201;-64
2021/01/21 12:32:43;;;;;;;5.93;0.40;;;8.40;99.90;;;;;;5055998;28;20193;-62
2021/01/21 12:35:09;;;;;;;2.13;0.30;;;8.40;99.90;;;;;;5056842;28;20442;-62
2021/01/21 12:37:36;;;;;;;1.70;0.30;;;8.40;99.90;;;;;;5053684;28;20206;-63
2021/01/21 12:40:02;;;;;;;2.63;0.83;;;8.50;99.90;;;;;;5059340;28;20441;-63
2021/01/21 12:42:28;;;;;;;2.10;0.57;;;8.50;99.90;;;;;;5054026;28;20537;-62
2021/01/21 12:44:53;;;;;;;1.60;0.20;;;8.50;99.90;;;;;;5053814;28;20452;-62
2021/01/21 12:47:19;;;;;;;3.53;1.10;;;8.50;99.90;;;;;;5054078;28;20213;-63
2021/01/21 12:49:44;;;;;;;1.70;0.30;;;8.50;99.90;;;;;;5049403;28;20202;-62
2021/01/21 12:52:11;;;;;;;1.90;0.40;;;8.50;99.90;;;;;;5038039;28;20206;-62
2021/01/21 12:54:37;;;;;;;1.60;0.20;;;8.50;99.90;;;;;;5036974;28;20671;-61